Time;durP1;ratioP1;P1;durP2;ratioP2;P2;SDS_P1;SDS_P2;PMS_P1;PMS_P2;Temp;Humidity;BMP_temperature;BMP_pressure;BME280_temperature;BME280_humidity;BME280_pressure;Samples;Min_cycle;Max_cycle;Signal;HPM_P1;HPM_P2
2023/04/21 00:01:49;;;;;;;24.20;15.30;;;;;;;9.47;93.54;101042.39;218316;1290;139771;-82
2023/04/21 00:06:51;;;;;;;22.50;13.80;;;;;;;9.43;93.41;101041.50;218685;1290;139361;-82
2023/04/21 00:11:52;;;;;;;23.60;13.60;;;;;;;9.40;93.59;101039.63;218088;1290;140706;-81
2023/04/21 00:16:52;;;;;;;24.40;14.60;;;;;;;9.34;93.59;101032.66;218887;1290;139000;-81
2023/04/21 00:21:57;;;;;;;25.00;14.80;;;;;;;9.33;93.35;101034.34;218048;1290;140564;-82
2023/04/21 00:26:57;;;;;;;26.70;15.20;;;;;;;9.37;93.06;101032.80;218646;1290;138879;-82
2023/04/21 00:31:58;;;;;;;26.90;14.70;;;;;;;9.36;92.84;101031.30;218147;1290;139738;-81
2023/04/21 00:36:59;;;;;;;26.30;14.60;;;;;;;9.33;92.46;101025.39;218707;1290;139669;-82
2023/04/21 00:42:00;;;;;;;25.10;14.00;;;;;;;9.33;92.06;101025.24;218128;1290;139717;-82
2023/04/21 00:47:00;;;;;;;23.80;14.20;;;;;;;9.32;92.03;101024.59;218665;1290;139140;-81
2023/04/21 00:52:03;;;;;;;24.00;14.00;;;;;;;9.33;91.60;101024.92;218121;1290;139764;-82
2023/04/21 00:57:06;;;;;;;24.40;13.70;;;;;;;9.31;91.55;101023.48;218627;1290;139204;-82
2023/04/21 01:02:07;;;;;;;24.70;14.60;;;;;;;9.31;91.28;101021.13;218334;1290;139463;-81
2023/04/21 01:07:08;;;;;;;23.90;14.00;;;;;;;9.30;91.33;101022.98;218603;1290;138665;-83
2023/04/21 01:12:10;;;;;;;25.50;15.20;;;;;;;9.29;90.98;101023.71;218105;1290;140244;-81
2023/04/21 01:17:11;;;;;;;22.60;14.30;;;;;;;9.24;90.78;101019.60;218603;1290;138887;-81
2023/04/21 01:22:14;;;;;;;23.00;14.40;;;;;;;9.20;90.94;101016.67;218138;1290;139442;-81
2023/04/21 01:27:19;;;;;;;22.70;14.10;;;;;;;9.16;91.04;101018.36;218607;1290;138957;-82
2023/04/21 01:32:22;;;;;;;23.10;14.80;;;;;;;9.10;90.79;101014.30;217882;1291;138973;-81
2023/04/21 01:37:26;;;;;;;23.90;14.60;;;;;;;9.09;90.84;101014.33;218871;1290;95744;-81
2023/04/21 01:42:28;;;;;;;23.20;14.40;;;;;;;9.04;90.78;101012.96;218050;1290;139478;-82
2023/04/21 01:47:28;;;;;;;21.80;13.70;;;;;;;8.99;90.95;101010.99;218672;1290;138868;-82
2023/04/21 01:52:28;;;;;;;24.80;14.70;;;;;;;8.94;90.91;101013.55;218181;1290;140355;-81
2023/04/21 01:57:29;;;;;;;26.60;14.30;;;;;;;8.89;90.81;101017.94;218710;1290;138935;-81
2023/04/21 02:02:29;;;;;;;20.80;12.70;;;;;;;8.86;90.77;101014.11;218155;1290;140005;-81
2023/04/21 02:07:29;;;;;;;24.30;14.50;;;;;;;8.83;90.69;101017.33;218793;1290;95674;-80
2023/04/21 02:12:30;;;;;;;22.70;13.70;;;;;;;8.82;90.90;101017.08;218318;1290;139525;-80
2023/04/21 02:17:30;;;;;;;27.80;14.20;;;;;;;8.79;90.76;101014.30;218784;1290;138851;-80
2023/04/21 02:22:33;;;;;;;24.80;13.90;;;;;;;8.71;90.96;101009.77;218078;1290;139466;-81
2023/04/21 02:27:34;;;;;;;23.30;13.80;;;;;;;8.62;91.20;101011.81;218690;1290;139001;-81
2023/04/21 02:32:34;;;;;;;25.00;14.20;;;;;;;8.55;91.54;101016.61;218176;1290;139621;-80
2023/04/21 02:37:34;;;;;;;22.90;14.40;;;;;;;8.46;91.91;101017.67;218784;1290;96122;-81
2023/04/21 02:42:35;;;;;;;24.30;13.80;;;;;;;8.39;91.99;101013.16;218237;1290;139957;-80
2023/04/21 02:47:35;;;;;;;28.30;14.30;;;;;;;8.34;92.08;101015.67;218706;1290;138893;-81
2023/04/21 02:52:36;;;;;;;22.50;13.30;;;;;;;8.33;92.15;101016.27;218149;1290;139923;-82
2023/04/21 02:57:37;;;;;;;22.90;13.80;;;;;;;8.32;92.03;101016.58;218739;1290;138958;-81
2023/04/21 03:02:37;;;;;;;25.00;15.20;;;;;;;8.30;92.07;101013.84;218148;1290;139940;-81
2023/04/21 03:07:38;;;;;;;23.80;13.90;;;;;;;8.26;92.01;101012.48;218757;1290;95651;-81
2023/04/21 03:12:38;;;;;;;22.30;14.40;;;;;;;8.21;92.08;101014.98;218194;1290;140285;-81
2023/04/21 03:17:42;;;;;;;26.30;14.70;;;;;;;8.16;92.33;101013.69;218729;1290;138921;-84
2023/04/21 03:22:42;;;;;;;26.40;15.00;;;;;;;8.13;92.50;101013.30;218201;1290;139379;-83
2023/04/21 03:27:42;;;;;;;27.90;15.30;;;;;;;8.05;92.74;101010.47;218710;1290;138902;-82
2023/04/21 03:32:43;;;;;;;27.80;14.30;;;;;;;8.00;92.80;101006.41;218051;1290;139979;-80
2023/04/21 03:37:43;;;;;;;24.60;14.40;;;;;;;7.95;92.86;101007.42;218709;1290;95683;-81
2023/04/21 03:42:44;;;;;;;23.70;14.30;;;;;;;7.91;92.88;101005.42;218151;1290;139156;-82
2023/04/21 03:47:44;;;;;;;21.90;14.30;;;;;;;7.87;92.94;101006.39;218716;1290;138825;-82
2023/04/21 03:52:45;;;;;;;22.50;14.60;;;;;;;7.83;93.13;101002.68;218113;1290;139403;-80
2023/04/21 03:57:45;;;;;;;26.30;13.80;;;;;;;7.82;93.15;101007.02;218661;1290;139967;-86
2023/04/21 04:02:45;;;;;;;25.80;14.60;;;;;;;7.80;93.33;101009.17;218137;1290;140841;-80
2023/04/21 04:07:46;;;;;;;27.80;13.30;;;;;;;7.77;93.32;101007.66;218904;1290;95585;-81
2023/04/21 04:12:46;;;;;;;25.20;13.50;;;;;;;7.76;93.20;101008.48;218427;1290;138063;-82
2023/04/21 04:17:46;;;;;;;25.20;14.60;;;;;;;7.79;92.89;101009.90;218591;1290;188193;-81
2023/04/21 04:22:47;;;;;;;23.10;13.30;;;;;;;7.84;92.61;101015.68;218219;1290;139585;-81
2023/04/21 04:27:49;;;;;;;21.30;12.20;;;;;;;7.89;92.42;101021.71;218596;1290;139025;-81
2023/04/21 04:32:49;;;;;;;25.70;13.70;;;;;;;7.93;92.08;101024.10;218141;1290;139737;-80
2023/04/21 04:37:50;;;;;;;23.90;14.30;;;;;;;7.94;92.23;101026.82;218782;1290;95763;-80
2023/04/21 04:42:51;;;;;;;22.90;13.30;;;;;;;7.95;92.54;101024.48;218143;1290;139884;-81
2023/04/21 04:47:51;;;;;;;23.00;12.60;;;;;;;7.97;91.97;101022.91;218712;1290;138691;-81
2023/04/21 04:52:52;;;;;;;22.70;12.40;;;;;;;8.06;91.30;101024.13;218185;1290;140823;-81
2023/04/21 04:57:52;;;;;;;19.10;11.30;;;;;;;8.17;90.67;101027.20;218742;1290;139649;-81
2023/04/21 05:02:53;;;;;;;21.70;11.60;;;;;;;8.27;90.06;101024.00;218207;1290;140635;-82
2023/04/21 05:07:53;;;;;;;20.70;10.90;;;;;;;8.38;89.69;101020.36;218777;1290;95645;-80
2023/04/21 05:12:54;;;;;;;20.90;11.50;;;;;;;8.50;89.05;101021.33;218163;1290;140896;-80
2023/04/21 05:17:54;;;;;;;23.50;11.70;;;;;;;8.62;88.63;101016.73;218706;1290;138733;-80
2023/04/21 05:22:55;;;;;;;16.50;9.80;;;;;;;8.74;87.97;101018.33;218130;1290;139335;-81
2023/04/21 05:27:55;;;;;;;18.10;10.30;;;;;;;8.89;87.13;101025.65;218550;1290;139008;-82
2023/04/21 05:32:55;;;;;;;18.30;11.20;;;;;;;9.05;86.70;101029.14;218148;1290;139803;-82
2023/04/21 05:37:56;;;;;;;19.50;10.40;;;;;;;9.19;86.79;101025.98;218779;1290;95707;-81
2023/04/21 05:42:56;;;;;;;18.50;10.70;;;;;;;9.42;86.14;101031.59;218139;1290;139258;-82
2023/04/21 05:47:56;;;;;;;18.40;10.80;;;;;;;9.72;85.80;101030.06;218613;1290;138736;-82
2023/04/21 05:52:57;;;;;;;16.90;10.10;;;;;;;10.03;84.26;101035.75;218143;1290;139281;-82
2023/04/21 05:57:57;;;;;;;17.60;9.80;;;;;;;10.32;83.05;101026.54;218659;1290;139254;-82
2023/04/21 06:02:58;;;;;;;16.90;10.30;;;;;;;10.58;82.84;101027.77;218196;1290;139747;-83
2023/04/21 06:07:58;;;;;;;15.40;9.40;;;;;;;10.84;81.67;101025.70;219098;1290;95614;-82
2023/04/21 06:12:58;;;;;;;16.40;9.60;;;;;;;11.05;80.78;101024.62;218129;1290;139136;-81
2023/04/21 06:17:59;;;;;;;20.00;9.10;;;;;;;11.24;79.47;101023.08;218575;1290;138975;-83
2023/04/21 06:22:59;;;;;;;17.80;8.60;;;;;;;11.41;78.05;101023.77;218055;1290;139205;-82
2023/04/21 06:28:00;;;;;;;14.60;8.70;;;;;;;11.57;76.60;101022.88;218602;1290;139089;-82
2023/04/21 06:33:00;;;;;;;13.20;7.60;;;;;;;11.72;76.98;101023.76;218148;1290;140195;-84
2023/04/21 06:38:01;;;;;;;15.00;8.70;;;;;;;11.89;75.24;101024.80;218744;1291;110937;-82
2023/04/21 06:43:01;;;;;;;12.00;7.30;;;;;;;12.04;75.05;101026.39;218031;1290;139422;-83
2023/04/21 06:48:02;;;;;;;15.30;8.10;;;;;;;12.20;74.44;101019.91;218682;1290;140557;-81
2023/04/21 06:53:02;;;;;;;17.00;8.10;;;;;;;12.37;72.80;101020.46;218106;1290;139868;-83
2023/04/21 06:58:03;;;;;;;13.50;7.30;;;;;;;12.53;71.90;101020.82;218629;1290;139104;-82
2023/04/21 07:03:03;;;;;;;14.70;7.00;;;;;;;12.70;70.99;101015.36;218146;1290;140684;-81
2023/04/21 07:08:03;;;;;;;15.50;7.90;;;;;;;12.86;71.22;101017.44;218700;1291;95614;-81
2023/04/21 07:13:04;;;;;;;16.30;8.10;;;;;;;13.05;70.92;101014.60;218112;1291;138993;-84
2023/04/21 07:18:04;;;;;;;13.20;7.10;;;;;;;13.17;71.19;101022.70;218628;1290;138971;-81
2023/04/21 07:23:05;;;;;;;12.70;7.60;;;;;;;13.33;71.07;101026.48;218142;1290;139543;-82
2023/04/21 07:28:05;;;;;;;14.00;7.90;;;;;;;13.51;69.96;101025.38;218577;1290;139480;-83
2023/04/21 07:33:05;;;;;;;17.20;8.60;;;;;;;13.68;68.34;101026.55;218084;1290;138537;-83
2023/04/21 07:38:06;;;;;;;12.70;7.20;;;;;;;13.78;68.57;101020.77;218753;1290;95759;-83
2023/04/21 07:43:06;;;;;;;11.90;6.40;;;;;;;13.91;68.05;101019.14;218071;1290;138778;-83
2023/04/21 07:48:06;;;;;;;12.70;7.00;;;;;;;14.04;66.28;101019.46;218624;1289;138639;-88
2023/04/21 07:53:07;;;;;;;14.50;6.40;;;;;;;14.19;66.98;101016.80;218121;1290;139834;-82
2023/04/21 07:58:09;;;;;;;15.80;7.90;;;;;;;14.36;65.45;101013.43;218709;1290;138486;-83
2023/04/21 08:03:09;;;;;;;11.60;7.00;;;;;;;14.54;64.13;101010.90;218141;1291;139513;-82
2023/04/21 08:08:10;;;;;;;13.40;7.60;;;;;;;14.73;63.09;101006.86;218876;1291;95771;-86
2023/04/21 08:13:10;;;;;;;11.90;6.60;;;;;;;14.94;61.56;101005.58;218408;1290;138844;-85
2023/04/21 08:18:11;;;;;;;13.40;6.90;;;;;;;15.16;62.31;100999.21;218609;1291;138292;-82
2023/04/21 08:23:14;;;;;;;12.00;6.20;;;;;;;15.46;62.63;100994.33;218136;1290;138714;-83
2023/04/21 08:28:14;;;;;;;11.30;5.40;;;;;;;15.87;60.90;100991.30;218507;1290;138561;-83
2023/04/21 08:33:15;;;;;;;9.70;5.80;;;;;;;16.45;62.04;100983.70;218113;1291;138567;-82
2023/04/21 08:38:16;;;;;;;10.70;5.90;;;;;;;17.23;60.97;100984.26;218582;1290;138348;-88
2023/04/21 08:43:16;;;;;;;10.00;5.70;;;;;;;17.69;55.45;100982.63;218039;1290;138705;-83
2023/04/21 08:48:20;;;;;;;11.30;4.90;;;;;;;18.00;54.60;100977.55;218523;1290;140137;-82
2023/04/21 08:53:21;;;;;;;10.80;5.60;;;;;;;18.70;53.40;100981.35;218042;1290;138729;-84
2023/04/21 08:58:22;;;;;;;12.50;4.80;;;;;;;19.15;52.18;100976.74;218579;1290;139911;-92
2023/04/21 09:03:24;;;;;;;10.60;5.10;;;;;;;19.70;51.49;100976.34;217938;1291;138866;-87
2023/04/21 09:08:26;;;;;;;10.30;5.50;;;;;;;20.28;48.17;100975.27;218657;1290;139020;-85
2023/04/21 09:13:32;;;;;;;30.40;13.00;;;;;;;20.44;46.42;100971.05;218071;1291;138126;-92
2023/04/21 09:18:35;;;;;;;17.50;7.10;;;;;;;20.64;46.38;100971.57;218298;1293;139119;-85
2023/04/21 09:23:51;;;;;;;8.50;4.80;;;;;;;21.32;45.64;100971.30;218040;1290;138492;-83
2023/04/21 09:28:51;;;;;;;10.50;5.40;;;;;;;21.74;43.58;100968.38;218500;1292;138105;-84
2023/04/21 09:33:57;;;;;;;12.50;5.20;;;;;;;22.14;43.98;100973.68;217878;1290;138349;-87
2023/04/21 09:39:02;;;;;;;10.60;5.60;;;;;;;22.46;42.02;100971.85;218427;1291;138673;-91
2023/04/21 09:44:03;;;;;;;;;;;;;;;22.74;42.07;100969.09;218240;1293;138721;-86
2023/04/21 09:49:05;;;;;;;11.00;4.70;;;;;;;23.05;40.89;100966.14;218059;1292;125229;-83
2023/04/21 09:54:14;;;;;;;10.00;4.70;;;;;;;23.24;38.61;100970.42;218595;1291;139047;-83
2023/04/21 09:59:19;;;;;;;12.30;5.40;;;;;;;23.78;41.54;100963.80;218126;1291;140670;-82
2023/04/21 10:04:22;;;;;;;9.90;5.00;;;;;;;24.12;38.68;100958.77;218534;1291;138883;-82
2023/04/21 10:09:26;;;;;;;11.60;5.50;;;;;;;24.07;39.14;100953.80;218172;1291;138291;-85
2023/04/21 10:14:26;;;;;;;11.10;5.50;;;;;;;24.13;36.55;100951.59;218463;1291;138445;-83
2023/04/21 10:19:27;;;;;;;11.50;5.70;;;;;;;24.21;37.93;100951.27;218238;1291;138782;-82
2023/04/21 10:24:28;;;;;;;9.70;5.50;;;;;;;24.18;36.67;100953.41;218620;1291;139394;-83
2023/04/21 10:29:33;;;;;;;11.10;5.50;;;;;;;24.44;38.30;100939.16;218110;1290;139057;-85
2023/04/21 10:34:36;;;;;;;9.10;5.80;;;;;;;24.70;36.97;100940.45;218592;1291;139154;-82
2023/04/21 10:39:42;;;;;;;9.60;5.10;;;;;;;24.92;37.85;100934.67;218121;1291;139434;-82
2023/04/21 10:44:51;;;;;;;8.30;5.00;;;;;;;25.40;36.82;100934.95;218577;1291;138485;-82
2023/04/21 10:49:52;;;;;;;8.90;4.80;;;;;;;25.27;35.26;100926.66;218155;1291;139221;-82
2023/04/21 10:54:55;;;;;;;11.80;5.90;;;;;;;25.26;34.89;100919.67;218568;1290;138071;-81
2023/04/21 10:59:56;;;;;;;11.40;5.50;;;;;;;25.04;35.16;100923.30;218133;1290;138664;-85
2023/04/21 11:04:56;;;;;;;9.40;5.30;;;;;;;25.16;35.34;100922.29;218641;1291;139304;-80
2023/04/21 11:10:02;;;;;;;9.60;4.90;;;;;;;25.30;35.92;100908.79;218018;1290;138593;-81
2023/04/21 11:15:08;;;;;;;9.70;5.20;;;;;;;25.23;34.47;100900.89;218491;1292;138291;-81
2023/04/21 11:20:08;;;;;;;8.70;4.80;;;;;;;25.24;34.14;100899.70;218167;1291;138722;-82
2023/04/21 11:25:17;;;;;;;9.30;4.90;;;;;;;25.39;34.66;100895.31;218622;1292;138691;-86
2023/04/21 11:30:18;;;;;;;8.30;4.70;;;;;;;25.39;32.88;100886.92;218118;1292;139652;-81
2023/04/21 11:35:18;;;;;;;8.90;4.70;;;;;;;25.23;33.82;100880.30;218670;1291;138358;-81
2023/04/21 11:40:20;;;;;;;9.60;4.90;;;;;;;25.15;33.25;100877.33;218153;1291;139569;-86
2023/04/21 11:45:21;;;;;;;10.00;4.90;;;;;;;25.16;32.97;100870.32;218614;1290;138290;-81
2023/04/21 11:50:31;;;;;;;7.90;4.20;;;;;;;25.04;32.91;100866.25;218149;1291;139718;-83
2023/04/21 11:55:33;;;;;;;8.00;4.70;;;;;;;25.02;33.19;100862.89;218567;1292;96060;-83
2023/04/21 12:00:33;;;;;;;9.50;4.90;;;;;;;24.93;32.46;100857.07;218033;1291;138475;-83
2023/04/21 12:05:35;;;;;;;11.80;5.70;;;;;;;24.79;31.32;100864.00;218623;1291;139121;-81
2023/04/21 12:10:35;;;;;;;9.40;5.00;;;;;;;24.53;33.16;100855.70;218154;1291;138994;-82
2023/04/21 12:15:36;;;;;;;10.00;4.70;;;;;;;24.49;31.33;100850.78;218687;1291;138262;-82
2023/04/21 12:20:36;;;;;;;10.80;4.90;;;;;;;24.30;32.31;100844.39;218014;1289;139014;-86
2023/04/21 12:25:36;;;;;;;8.80;4.70;;;;;;;24.31;32.21;100840.55;218764;1290;95672;-83
2023/04/21 12:30:37;;;;;;;9.20;5.20;;;;;;;24.23;31.88;100836.52;218064;1291;138090;-81
2023/04/21 12:35:37;;;;;;;9.50;5.60;;;;;;;24.03;31.35;100833.59;218667;1290;138152;-80
2023/04/21 12:40:38;;;;;;;8.70;4.80;;;;;;;24.16;32.66;100824.98;217987;1291;138285;-83
2023/04/21 12:45:38;;;;;;;8.10;3.80;;;;;;;24.18;33.78;100818.80;218665;1290;139788;-81
2023/04/21 12:50:38;;;;;;;8.10;4.50;;;;;;;24.27;32.88;100819.48;218119;1291;139819;-81
2023/04/21 12:55:39;;;;;;;14.80;4.90;;;;;;;24.02;31.55;100813.77;218649;1291;95826;-83
2023/04/21 13:00:40;;;;;;;7.80;4.00;;;;;;;23.67;31.78;100813.29;218170;1290;139103;-82
2023/04/21 13:05:40;;;;;;;9.40;4.70;;;;;;;23.45;32.09;100800.30;218579;1290;138302;-83
2023/04/21 13:10:41;;;;;;;9.00;4.60;;;;;;;23.33;31.60;100796.05;218073;1291;138538;-82
2023/04/21 13:15:41;;;;;;;13.80;4.80;;;;;;;23.32;31.57;100794.97;218668;1290;138611;-83
2023/04/21 13:20:41;;;;;;;7.20;4.00;;;;;;;23.01;30.68;100794.04;218076;1291;138689;-88
2023/04/21 13:25:44;;;;;;;8.60;4.40;;;;;;;22.69;30.53;100794.77;218548;1290;95709;-82
2023/04/21 13:30:44;;;;;;;7.40;3.70;;;;;;;22.55;31.11;100789.17;218150;1291;138963;-81
2023/04/21 13:35:45;;;;;;;7.60;4.30;;;;;;;22.57;30.78;100776.25;218560;1290;138199;-84
2023/04/21 13:40:47;;;;;;;10.40;4.30;;;;;;;22.38;30.22;100770.84;218043;1291;140416;-82
2023/04/21 13:45:50;;;;;;;8.50;4.30;;;;;;;22.25;32.77;100764.98;218692;1291;138722;-87
2023/04/21 13:50:51;;;;;;;8.20;4.60;;;;;;;22.19;31.61;100759.58;217993;1290;139589;-81
2023/04/21 13:55:53;;;;;;;7.80;3.90;;;;;;;22.11;32.38;100750.62;218643;1290;95781;-82
2023/04/21 14:00:54;;;;;;;8.20;4.90;;;;;;;22.07;32.53;100748.10;218105;1290;138826;-83
2023/04/21 14:05:54;;;;;;;8.10;4.40;;;;;;;21.98;32.70;100743.48;218713;1290;138795;-82
2023/04/21 14:10:55;;;;;;;8.50;4.10;;;;;;;21.91;32.09;100739.55;218131;1290;139260;-82
2023/04/21 14:15:57;;;;;;;8.00;4.20;;;;;;;21.71;32.59;100732.36;218602;1291;139380;-81
2023/04/21 14:20:57;;;;;;;9.00;4.70;;;;;;;21.78;34.05;100724.58;217949;1291;139341;-83
2023/04/21 14:25:58;;;;;;;8.20;3.70;;;;;;;21.66;31.99;100720.02;218556;1290;95673;-84
2023/04/21 14:30:58;;;;;;;8.20;4.30;;;;;;;21.41;32.07;100720.03;218121;1290;139095;-83
2023/04/21 14:35:58;;;;;;;8.30;4.10;;;;;;;21.25;32.56;100716.01;218732;1290;138084;-82
2023/04/21 14:40:59;;;;;;;7.10;3.70;;;;;;;21.14;33.41;100709.66;218158;1290;138626;-82
2023/04/21 14:45:59;;;;;;;11.80;5.20;;;;;;;21.12;33.85;100705.02;218646;1290;139076;-82
2023/04/21 14:51:00;;;;;;;9.60;4.80;;;;;;;21.03;34.89;100698.37;218122;1290;139362;-82
2023/04/21 14:56:01;;;;;;;8.30;3.80;;;;;;;20.82;33.03;100689.09;218685;1290;95754;-90
2023/04/21 15:01:02;;;;;;;6.70;4.10;;;;;;;20.59;34.13;100689.60;217940;1290;139404;-82
2023/04/21 15:06:03;;;;;;;12.00;5.00;;;;;;;20.53;35.85;100685.20;218720;1290;138109;-83
2023/04/21 15:11:04;;;;;;;8.90;4.30;;;;;;;20.44;33.70;100684.46;218107;1290;138544;-82
2023/04/21 15:16:04;;;;;;;8.60;4.20;;;;;;;20.24;33.97;100680.91;218778;1290;138202;-83
2023/04/21 15:21:05;;;;;;;10.50;4.30;;;;;;;20.13;35.45;100674.31;218042;1290;139063;-83
2023/04/21 15:26:05;;;;;;;7.90;4.10;;;;;;;20.06;35.20;100672.64;218819;1290;95625;-83
2023/04/21 15:31:06;;;;;;;7.60;4.20;;;;;;;19.94;35.03;100665.22;218071;1290;139621;-82
2023/04/21 15:36:06;;;;;;;10.70;4.00;;;;;;;19.87;36.91;100661.55;218754;1290;138144;-83
2023/04/21 15:41:07;;;;;;;9.60;4.40;;;;;;;19.73;35.13;100654.79;218027;1290;139429;-82
2023/04/21 15:46:13;;;;;;;9.30;4.50;;;;;;;19.51;34.84;100650.48;218685;1290;138480;-85
2023/04/21 15:51:14;;;;;;;;;;;;;;;19.28;34.31;100650.74;217986;1290;138362;-82
2023/04/21 15:56:16;;;;;;;10.20;4.00;;;;;;;19.16;35.28;100644.89;218654;1290;95685;-81
2023/04/21 16:01:17;;;;;;;9.20;4.40;;;;;;;19.11;36.27;100640.24;218111;1290;138577;-84
2023/04/21 16:06:17;;;;;;;8.00;4.50;;;;;;;18.97;35.06;100638.29;218677;1290;138190;-81
2023/04/21 16:11:17;;;;;;;8.60;4.20;;;;;;;18.78;35.04;100634.02;218187;1290;139764;-81
2023/04/21 16:16:18;;;;;;;9.10;3.90;;;;;;;18.68;35.15;100626.33;218405;1290;290080;-82
2023/04/21 16:21:19;;;;;;;9.50;3.90;;;;;;;18.59;36.75;100627.06;218090;1290;138646;-82
2023/04/21 16:26:19;;;;;;;7.10;3.80;;;;;;;18.52;35.53;100627.26;218656;1290;138353;-84
2023/04/21 16:31:20;;;;;;;7.30;3.90;;;;;;;18.38;35.75;100628.80;218142;1290;139689;-86
2023/04/21 16:36:20;;;;;;;8.00;4.20;;;;;;;18.25;35.99;100625.63;218443;1290;138024;-82
2023/04/21 16:41:21;;;;;;;10.90;4.50;;;;;;;18.15;36.90;100619.91;218154;1290;138962;-83
2023/04/21 16:46:21;;;;;;;11.20;4.50;;;;;;;18.01;37.52;100621.89;218726;1290;138272;-85
2023/04/21 16:51:22;;;;;;;10.80;4.10;;;;;;;17.88;37.19;100619.80;218052;1290;139496;-84
2023/04/21 16:56:22;;;;;;;9.80;4.30;;;;;;;17.82;38.53;100616.16;218697;1290;138706;-84
2023/04/21 17:01:23;;;;;;;7.40;4.30;;;;;;;17.75;38.33;100614.37;218198;1290;138027;-83
2023/04/21 17:06:23;;;;;;;12.70;4.30;;;;;;;17.62;37.63;100608.73;218739;1290;137992;-84
2023/04/21 17:11:26;;;;;;;11.10;4.20;;;;;;;17.50;37.98;100603.76;218040;1290;140285;-83
2023/04/21 17:16:26;;;;;;;9.30;3.80;;;;;;;17.38;38.59;100606.84;218727;1290;138326;-83
2023/04/21 17:21:27;;;;;;;7.90;3.50;;;;;;;17.26;39.03;100606.91;218187;1290;139329;-83
2023/04/21 17:26:28;;;;;;;10.20;3.90;;;;;;;17.16;39.88;100607.53;218562;1290;138429;-84
2023/04/21 17:31:29;;;;;;;8.80;4.10;;;;;;;17.03;40.40;100605.72;218213;1290;139641;-83
2023/04/21 17:36:29;;;;;;;11.00;4.10;;;;;;;16.88;40.78;100605.64;218695;1290;138996;-83
2023/04/21 17:41:30;;;;;;;10.10;3.70;;;;;;;16.75;41.48;100602.15;218166;1290;139675;-83
2023/04/21 17:46:30;;;;;;;8.10;3.70;;;;;;;16.62;42.17;100606.80;218707;1290;138459;-83
2023/04/21 17:51:31;;;;;;;8.40;3.70;;;;;;;16.48;41.97;100606.88;218147;1290;139203;-83
2023/04/21 17:56:31;;;;;;;7.10;3.90;;;;;;;16.31;42.75;100601.85;218666;1290;138193;-83
2023/04/21 18:01:32;;;;;;;7.60;3.20;;;;;;;16.16;44.34;100606.35;218254;1290;138892;-83
2023/04/21 18:06:34;;;;;;;9.30;3.80;;;;;;;15.95;45.31;100609.30;218548;1290;138097;-82
2023/04/21 18:11:34;;;;;;;10.00;4.60;;;;;;;15.76;46.82;100609.38;218067;1290;139160;-83
2023/04/21 18:16:34;;;;;;;14.90;5.30;;;;;;;15.57;47.34;100610.61;218761;1290;138996;-83
2023/04/21 18:21:35;;;;;;;10.90;4.70;;;;;;;15.35;47.98;100617.29;218079;1290;139271;-83
2023/04/21 18:26:35;;;;;;;10.10;4.40;;;;;;;15.12;49.20;100614.78;218603;1290;138484;-82
2023/04/21 18:31:36;;;;;;;11.80;5.20;;;;;;;14.93;50.26;100616.91;218174;1290;138432;-83
2023/04/21 18:36:36;;;;;;;11.30;5.50;;;;;;;14.73;50.80;100615.64;218693;1290;138394;-83
2023/04/21 18:41:37;;;;;;;12.40;6.80;;;;;;;14.48;50.62;100614.11;218101;1290;142105;-83
2023/04/21 18:46:37;;;;;;;12.80;6.90;;;;;;;14.26;51.78;100613.11;218577;1290;138504;-83
2023/04/21 18:51:37;;;;;;;15.40;6.10;;;;;;;14.10;52.64;100610.32;218163;1290;139185;-83
2023/04/21 18:56:38;;;;;;;12.10;6.20;;;;;;;13.92;53.01;100605.58;218696;1290;138424;-83
2023/04/21 19:01:39;;;;;;;12.10;6.20;;;;;;;13.76;54.41;100606.36;218300;1290;139246;-83
2023/04/21 19:06:40;;;;;;;13.30;6.40;;;;;;;13.61;55.69;100603.03;218684;1290;138313;-83
2023/04/21 19:11:40;;;;;;;16.70;7.00;;;;;;;13.46;55.85;100604.66;218182;1290;138993;-83
2023/04/21 19:16:40;;;;;;;15.00;8.10;;;;;;;13.30;56.44;100602.16;218669;1290;138677;-83
2023/04/21 19:21:41;;;;;;;16.00;9.70;;;;;;;13.14;56.24;100601.56;218043;1290;138617;-82
2023/04/21 19:26:41;;;;;;;15.30;8.70;;;;;;;12.99;56.16;100602.91;218759;1290;138897;-83
2023/04/21 19:31:41;;;;;;;15.40;8.80;;;;;;;12.87;55.79;100604.89;218148;1290;139398;-84
2023/04/21 19:36:42;;;;;;;14.90;8.10;;;;;;;12.75;55.83;100607.05;218602;1290;138411;-83
2023/04/21 19:41:42;;;;;;;15.30;8.10;;;;;;;12.60;55.61;100609.48;218199;1290;138547;-83
2023/04/21 19:46:43;;;;;;;20.30;6.90;;;;;;;12.44;56.24;100604.66;218590;1290;138585;-83
2023/04/21 19:51:43;;;;;;;15.70;8.10;;;;;;;12.27;57.15;100601.16;218166;1290;139729;-83
2023/04/21 19:56:43;;;;;;;15.90;8.80;;;;;;;12.13;57.49;100599.88;218749;1290;138673;-83
2023/04/21 20:01:44;;;;;;;18.10;9.10;;;;;;;12.00;57.25;100604.03;218297;1290;138986;-84
2023/04/21 20:06:45;;;;;;;18.00;8.80;;;;;;;11.90;57.89;100600.33;218678;1290;138393;-83
2023/04/21 20:11:45;;;;;;;14.60;7.30;;;;;;;11.80;57.82;100603.31;218160;1290;138983;-83
2023/04/21 20:16:45;;;;;;;15.00;7.90;;;;;;;11.80;57.38;100610.63;218711;1290;139162;-83
2023/04/21 20:21:46;;;;;;;13.30;6.40;;;;;;;11.85;57.24;100613.36;218188;1290;139615;-84
2023/04/21 20:26:46;;;;;;;15.50;7.30;;;;;;;11.99;57.13;100617.89;218731;1290;138855;-85
2023/04/21 20:31:47;;;;;;;10.90;6.80;;;;;;;12.08;57.20;100621.05;218335;1290;138228;-84
2023/04/21 20:36:47;;;;;;;16.10;6.90;;;;;;;12.19;57.52;100619.54;218741;1290;138182;-83
2023/04/21 20:41:48;;;;;;;16.40;7.50;;;;;;;12.18;57.94;100618.91;218143;1290;138832;-86
2023/04/21 20:46:48;;;;;;;11.80;6.70;;;;;;;12.16;58.19;100622.05;218676;1290;138477;-82
2023/04/21 20:51:59;;;;;;;17.00;7.50;;;;;;;12.15;58.50;100622.89;218208;1290;138955;-82
2023/04/21 20:57:00;;;;;;;17.20;7.20;;;;;;;12.11;59.02;100625.79;218468;1290;138849;-84
2023/04/21 21:02:01;;;;;;;15.20;6.70;;;;;;;12.09;59.50;100627.58;218282;1290;138232;-85
2023/04/21 21:07:01;;;;;;;13.70;5.90;;;;;;;12.06;59.57;100628.50;218741;1290;138211;-91
2023/04/21 21:12:02;;;;;;;11.60;5.50;;;;;;;12.02;60.05;100625.64;218153;1290;138843;-84
2023/04/21 21:17:02;;;;;;;13.00;6.10;;;;;;;11.95;60.00;100625.34;218487;1290;139320;-86
2023/04/21 21:22:03;;;;;;;13.70;6.20;;;;;;;11.90;60.18;100627.50;218176;1290;138845;-83
2023/04/21 21:27:03;;;;;;;12.20;5.90;;;;;;;11.85;60.04;100629.43;218688;1290;138503;-86
2023/04/21 21:32:03;;;;;;;12.60;4.80;;;;;;;11.78;60.29;100630.85;218130;1290;138784;-84
2023/04/21 21:37:04;;;;;;;10.00;5.80;;;;;;;11.71;60.15;100628.27;218628;1290;138166;-87
2023/04/21 21:42:04;;;;;;;15.20;6.60;;;;;;;11.65;60.28;100629.40;218037;1290;139059;-84
2023/04/21 21:47:05;;;;;;;12.60;5.70;;;;;;;11.57;60.73;100631.90;218648;1290;138339;-86
2023/04/21 21:52:05;;;;;;;14.10;5.60;;;;;;;11.49;60.68;100629.36;218102;1290;139155;-85
2023/04/21 21:57:05;;;;;;;11.60;5.70;;;;;;;11.42;61.28;100631.33;218589;1290;139217;-87
2023/04/21 22:02:06;;;;;;;12.50;5.60;;;;;;;11.35;61.65;100630.39;218114;1290;139188;-87
2023/04/21 22:07:06;;;;;;;11.80;6.00;;;;;;;11.27;61.95;100626.59;218605;1290;138587;-85
2023/04/21 22:12:07;;;;;;;17.60;6.30;;;;;;;11.20;62.29;100626.83;218060;1290;139468;-86
2023/04/21 22:17:09;;;;;;;19.40;7.00;;;;;;;11.12;62.59;100629.65;218729;1290;205656;-89
2023/04/21 22:22:10;;;;;;;13.70;6.30;;;;;;;11.00;62.66;100626.36;217891;1290;138881;-85
2023/04/21 22:27:10;;;;;;;12.70;6.80;;;;;;;10.90;62.95;100625.98;218605;1290;138480;-90
2023/04/21 22:32:10;;;;;;;13.20;5.70;;;;;;;10.81;63.26;100625.33;218207;1290;138968;-87
2023/04/21 22:37:11;;;;;;;12.80;6.20;;;;;;;10.72;63.17;100625.59;218428;1290;138339;-90